Time;durP1;ratioP1;P1;durP2;ratioP2;P2;SDS_P1;SDS_P2;PMS_P1;PMS_P2;Temp;Humidity;BMP_temperature;BMP_pressure;BME280_temperature;BME280_humidity;BME280_pressure;Samples;Min_cycle;Max_cycle;Signal;HPM_P1;HPM_P2
2022/03/18 00:02:09;;;;;;;37.15;31.93;;;28.20;92.60;;;;;;1943175;73;21124;-89
2022/03/18 00:04:41;;;;;;;37.05;30.92;;;28.20;92.60;;;;;;1906183;74;21127;-90
2022/03/18 00:07:12;;;;;;;41.10;30.77;;;28.20;92.50;;;;;;1921351;74;21211;-90
2022/03/18 00:09:43;;;;;;;33.40;27.32;;;28.30;92.50;;;;;;1876335;75;21495;-89
2022/03/18 00:12:15;;;;;;;33.55;27.17;;;28.20;92.20;;;;;;1892038;74;21124;-89
2022/03/18 00:14:46;;;;;;;33.90;28.30;;;28.20;92.10;;;;;;1937801;72;21185;-89
2022/03/18 00:17:17;;;;;;;34.95;27.45;;;28.10;92.20;;;;;;1949254;72;21148;-88
2022/03/18 00:19:48;;;;;;;34.75;28.12;;;28.20;92.10;;;;;;1956391;73;21102;-88
2022/03/18 00:22:19;;;;;;;29.92;26.27;;;28.10;92.10;;;;;;1940937;73;21165;-89
2022/03/18 00:24:50;;;;;;;32.15;25.20;;;28.10;92.30;;;;;;1919357;74;21173;-89
2022/03/18 00:27:21;;;;;;;28.98;24.52;;;28.10;92.00;;;;;;1950614;73;21189;-89
2022/03/18 00:29:52;;;;;;;28.20;22.42;;;28.20;92.20;;;;;;1905283;74;21245;-89
2022/03/18 00:32:24;;;;;;;30.45;22.13;;;28.20;91.80;;;;;;1874665;76;21076;-89
2022/03/18 00:34:55;;;;;;;34.67;21.42;;;28.10;91.60;;;;;;1871528;76;21203;-90
2022/03/18 00:37:30;;;;;;;25.23;20.00;;;28.20;91.30;;;;;;1902057;73;21201;-89
2022/03/18 00:40:01;;;;;;;25.35;19.57;;;28.20;91.20;;;;;;1942675;73;21083;-90
2022/03/18 00:42:33;;;;;;;29.45;20.15;;;28.20;91.20;;;;;;1905181;74;21131;-87
2022/03/18 00:45:05;;;;;;;25.95;19.40;;;28.20;91.40;;;;;;1885412;75;21098;-89
2022/03/18 00:52:42;;;;;;;25.55;18.25;;;28.20;90.90;;;;;;1905065;74;21237;-88
2022/03/18 00:55:17;;;;;;;28.02;18.90;;;28.20;90.80;;;;;;1958903;72;21139;-90
2022/03/18 00:57:48;;;;;;;22.30;18.32;;;28.20;90.80;;;;;;1948006;73;21083;-90
2022/03/18 01:00:19;;;;;;;23.92;16.42;;;28.20;90.70;;;;;;1934210;73;21126;-90
2022/03/18 01:02:50;;;;;;;22.02;17.67;;;28.30;90.50;;;;;;1919396;73;21130;-89
2022/03/18 01:05:22;;;;;;;22.93;17.80;;;28.30;90.40;;;;;;1939954;73;21193;-90
2022/03/18 01:07:56;;;;;;;20.00;15.00;;;28.30;90.30;;;;;;1914554;73;21142;-89
2022/03/18 01:10:27;;;;;;;22.25;15.55;;;28.20;90.10;;;;;;1894498;75;21186;-88
2022/03/18 01:12:58;;;;;;;22.37;16.02;;;28.20;90.10;;;;;;1895479;75;21187;-89
2022/03/18 01:15:29;;;;;;;17.12;14.47;;;28.30;90.20;;;;;;1957715;73;21107;-89
2022/03/18 01:18:01;;;;;;;17.12;13.68;;;28.30;89.80;;;;;;1947692;72;21073;-88
2022/03/18 01:20:31;;;;;;;16.32;13.15;;;28.30;89.50;;;;;;1947954;73;21177;-88
2022/03/18 01:23:06;;;;;;;19.23;13.85;;;28.40;89.30;;;;;;1943753;73;21217;-89
2022/03/18 01:25:36;;;;;;;19.65;13.60;;;28.40;89.20;;;;;;1936871;73;21240;-88
2022/03/18 01:28:07;;;;;;;18.48;13.05;;;28.50;88.30;;;;;;1917913;74;21095;-88
2022/03/18 01:30:38;;;;;;;15.00;11.97;;;28.50;88.00;;;;;;1879015;75;21268;-89
2022/03/18 01:33:10;;;;;;;15.65;11.40;;;28.60;87.90;;;;;;1911337;74;21224;-89
2022/03/18 01:35:41;;;;;;;17.95;11.60;;;28.60;87.20;;;;;;1915135;74;21096;-88
2022/03/18 01:38:12;;;;;;;15.68;11.85;;;28.60;86.70;;;;;;1903180;74;21131;-89
2022/03/18 01:40:43;;;;;;;17.23;11.60;;;28.60;86.50;;;;;;1907373;74;21104;-88
2022/03/18 01:43:15;;;;;;;15.48;12.15;;;28.60;86.60;;;;;;1913581;74;21284;-86
2022/03/18 01:45:45;;;;;;;14.60;11.48;;;28.60;86.60;;;;;;1907016;73;21129;-89
2022/03/18 01:48:17;;;;;;;16.12;12.05;;;28.60;86.20;;;;;;1907167;74;21122;-88
2022/03/18 01:50:48;;;;;;;15.68;11.28;;;28.60;86.50;;;;;;1951504;72;21572;-88
2022/03/18 01:53:19;;;;;;;17.23;11.90;;;28.60;86.10;;;;;;1946209;73;21059;-87
2022/03/18 01:55:51;;;;;;;16.57;11.20;;;28.70;85.60;;;;;;1940414;73;21141;-86
2022/03/18 01:58:23;;;;;;;13.80;11.22;;;28.70;85.30;;;;;;1909686;74;21077;-88
2022/03/18 02:01:00;;;;;;;14.73;11.05;;;28.80;85.20;;;;;;1921936;73;21096;-89
2022/03/18 02:03:31;;;;;;;14.95;11.15;;;28.80;84.60;;;;;;1950795;72;21115;-87
2022/03/18 02:06:03;;;;;;;15.48;11.53;;;28.90;84.30;;;;;;1948972;73;21095;-86
2022/03/18 02:08:34;;;;;;;16.45;11.68;;;28.90;84.10;;;;;;1921089;73;21135;-87
2022/03/18 02:11:07;;;;;;;13.95;10.63;;;28.90;84.70;;;;;;1933395;73;21208;-88
2022/03/18 02:13:37;;;;;;;16.97;11.35;;;28.90;83.60;;;;;;1919905;73;21216;-88
2022/03/18 02:16:08;;;;;;;17.15;11.55;;;29.00;83.50;;;;;;1939005;73;21099;-87
2022/03/18 02:18:40;;;;;;;14.80;10.43;;;28.90;82.70;;;;;;1936733;73;21170;-86
2022/03/18 02:21:13;;;;;;;14.70;10.98;;;28.90;83.00;;;;;;1940908;73;21559;-87
2022/03/18 02:23:45;;;;;;;15.10;11.57;;;28.90;82.90;;;;;;1920636;74;21628;-87
2022/03/18 02:26:17;;;;;;;19.65;11.38;;;29.00;82.70;;;;;;1912359;74;21103;-87
2022/03/18 02:28:48;;;;;;;15.78;11.97;;;29.00;83.60;;;;;;1888500;74;21130;-86
2022/03/18 02:31:20;;;;;;;15.70;11.25;;;29.10;82.90;;;;;;1939616;73;21065;-88
2022/03/18 02:33:52;;;;;;;14.85;10.20;;;29.10;81.70;;;;;;1917560;74;21136;-87
2022/03/18 02:36:22;;;;;;;16.32;10.30;;;29.10;82.30;;;;;;1896166;74;21187;-86
2022/03/18 02:38:54;;;;;;;14.47;10.95;;;29.10;82.10;;;;;;1925342;74;21155;-86
2022/03/18 02:41:25;;;;;;;16.57;11.10;;;29.10;82.10;;;;;;1918363;73;21051;-87
2022/03/18 02:43:56;;;;;;;15.45;10.70;;;29.10;82.50;;;;;;1943882;73;21628;-86
2022/03/18 02:46:32;;;;;;;14.20;10.85;;;29.10;82.10;;;;;;1918283;74;21052;-87
2022/03/18 02:49:01;;;;;;;15.40;11.20;;;29.10;82.30;;;;;;1931936;73;21158;-85
2022/03/18 02:51:35;;;;;;;14.53;11.22;;;29.10;81.80;;;;;;1914862;74;21229;-85
2022/03/18 02:54:07;;;;;;;20.50;11.53;;;29.20;81.30;;;;;;1912389;74;21489;-85
2022/03/18 02:56:38;;;;;;;13.10;10.25;;;29.20;81.00;;;;;;1913419;74;21663;-86
2022/03/18 02:59:10;;;;;;;17.07;11.12;;;29.20;80.20;;;;;;1911921;74;21578;-88
2022/03/18 03:01:41;;;;;;;16.50;10.90;;;29.20;80.80;;;;;;1913121;74;21179;-88
2022/03/18 03:04:13;;;;;;;15.70;10.72;;;29.30;80.50;;;;;;1911914;74;21170;-87
2022/03/18 03:09:17;;;;;;;15.03;10.23;;;29.40;79.80;;;;;;1901691;75;21178;-86
2022/03/18 03:11:48;;;;;;;12.85;9.78;;;29.50;79.70;;;;;;1900544;73;21128;-86
2022/03/18 03:14:20;;;;;;;17.30;10.25;;;29.60;78.20;;;;;;1936601;73;21086;-87
2022/03/18 03:16:51;;;;;;;12.37;9.93;;;29.60;77.40;;;;;;1956560;73;21461;-87
2022/03/18 03:19:23;;;;;;;15.45;10.05;;;29.70;77.40;;;;;;1947496;73;21131;-86
2022/03/18 03:21:53;;;;;;;15.53;10.78;;;29.70;77.60;;;;;;1956457;72;21051;-87
2022/03/18 03:24:24;;;;;;;15.00;10.20;;;29.80;77.60;;;;;;1964311;73;21224;-87
2022/03/18 03:26:55;;;;;;;14.55;10.98;;;29.80;77.30;;;;;;1964370;73;21062;-87
2022/03/18 03:29:26;;;;;;;16.15;10.55;;;29.80;77.70;;;;;;1949749;72;21138;-87
2022/03/18 03:31:59;;;;;;;13.75;9.75;;;29.90;78.40;;;;;;1907498;74;21170;-86
2022/03/18 03:34:32;;;;;;;11.83;9.45;;;29.90;77.90;;;;;;1904957;74;21117;-86
2022/03/18 03:37:03;;;;;;;12.65;9.43;;;29.90;76.90;;;;;;1877171;75;21147;-86
2022/03/18 03:39:34;;;;;;;11.22;9.73;;;29.90;77.00;;;;;;1953679;73;21107;-86
2022/03/18 03:42:05;;;;;;;13.40;9.65;;;30.00;76.80;;;;;;1953723;73;21200;-88
2022/03/18 03:44:36;;;;;;;13.48;9.73;;;30.00;76.60;;;;;;1939911;73;21161;-87
2022/03/18 03:47:07;;;;;;;15.00;10.70;;;30.10;76.20;;;;;;1956598;73;21197;-88
2022/03/18 03:49:45;;;;;;;16.12;10.43;;;30.10;76.30;;;;;;1953968;73;21418;-86
2022/03/18 03:52:16;;;;;;;13.93;10.53;;;30.20;75.60;;;;;;1954865;73;21088;-86
2022/03/18 03:54:56;;;;;;;17.37;10.88;;;30.30;75.10;;;;;;1954579;73;21177;-88
2022/03/18 03:57:27;;;;;;;14.38;10.55;;;30.40;74.60;;;;;;1956272;73;21147;-86
2022/03/18 03:59:59;;;;;;;14.58;10.58;;;30.40;74.80;;;;;;1962399;73;21164;-87
2022/03/18 04:02:30;;;;;;;16.50;10.93;;;30.40;75.10;;;;;;1915570;74;21115;-88
2022/03/18 04:05:01;;;;;;;15.30;10.45;;;30.40;75.40;;;;;;1922644;73;21248;-87
2022/03/18 04:07:32;;;;;;;13.98;10.15;;;30.40;76.90;;;;;;1955335;73;21056;-87
2022/03/18 04:10:05;;;;;;;16.23;10.50;;;30.30;75.90;;;;;;1915820;74;21139;-87
2022/03/18 04:12:36;;;;;;;11.70;9.85;;;30.40;76.00;;;;;;1922352;74;21272;-87
2022/03/18 04:15:08;;;;;;;13.43;10.75;;;30.40;77.20;;;;;;1938473;73;21180;-87
2022/03/18 04:17:43;;;;;;;14.50;11.15;;;30.40;76.50;;;;;;1955568;73;21083;-87
2022/03/18 04:20:16;;;;;;;19.17;13.68;;;30.40;76.00;;;;;;1916086;75;21103;-88
2022/03/18 04:22:47;;;;;;;22.52;14.43;;;30.50;75.80;;;;;;1923056;73;21591;-87
2022/03/18 04:25:20;;;;;;;18.82;14.75;;;30.60;76.00;;;;;;1930721;72;21173;-88
2022/03/18 04:27:53;;;;;;;17.87;14.07;;;30.70;76.10;;;;;;1950811;72;21071;-87
2022/03/18 04:30:24;;;;;;;19.17;14.05;;;30.90;75.90;;;;;;1904557;74;21146;-88
2022/03/18 04:32:56;;;;;;;21.90;14.00;;;31.10;75.60;;;;;;1958968;72;21091;-89
2022/03/18 04:35:27;;;;;;;18.90;12.65;;;31.30;74.90;;;;;;1953513;73;21088;-88
2022/03/18 04:37:58;;;;;;;21.12;13.70;;;31.50;73.70;;;;;;1954357;73;21139;-87
2022/03/18 04:40:31;;;;;;;19.00;13.08;;;31.70;72.90;;;;;;1944268;73;21138;-88
2022/03/18 04:43:02;;;;;;;19.75;12.55;;;31.80;71.50;;;;;;1930604;73;21103;-86
2022/03/18 04:45:33;;;;;;;19.40;12.40;;;31.80;71.40;;;;;;1918772;73;21099;-88
2022/03/18 04:48:04;;;;;;;19.10;12.35;;;31.80;71.40;;;;;;1952381;73;21107;-86
2022/03/18 04:50:35;;;;;;;17.57;11.40;;;31.80;72.20;;;;;;1913886;73;21157;-86
2022/03/18 04:53:06;;;;;;;16.70;11.83;;;31.90;71.60;;;;;;1949940;73;21133;-86
2022/03/18 04:55:37;;;;;;;16.23;11.57;;;32.00;71.00;;;;;;1964461;73;21169;-87
2022/03/18 04:58:08;;;;;;;15.28;11.18;;;32.00;71.30;;;;;;1964536;73;21064;-88
2022/03/18 05:00:39;;;;;;;17.92;11.48;;;32.00;71.10;;;;;;1964456;73;21098;-87
2022/03/18 05:03:10;;;;;;;19.98;12.20;;;31.90;70.00;;;;;;1965095;72;21140;-86
2022/03/18 05:05:41;;;;;;;16.48;12.07;;;31.80;70.70;;;;;;1951627;73;21067;-87
2022/03/18 05:08:12;;;;;;;17.23;12.23;;;31.70;70.60;;;;;;1926691;74;21075;-88
2022/03/18 05:10:43;;;;;;;16.77;11.40;;;31.60;71.30;;;;;;1930075;73;21146;-87
2022/03/18 05:13:15;;;;;;;14.50;11.12;;;31.50;71.40;;;;;;1928029;74;21143;-87
2022/03/18 05:15:46;;;;;;;18.73;11.93;;;31.40;71.50;;;;;;1917561;73;21111;-87
2022/03/18 05:18:17;;;;;;;13.10;11.40;;;31.20;71.70;;;;;;1915674;74;21100;-88
2022/03/18 05:20:48;;;;;;;17.62;12.80;;;31.20;72.30;;;;;;1916413;74;21100;-87
2022/03/18 05:23:18;;;;;;;12.93;11.30;;;31.10;72.50;;;;;;1916533;74;21213;-87
2022/03/18 05:25:49;;;;;;;14.38;12.07;;;31.00;73.20;;;;;;1916543;75;21181;-87
2022/03/18 05:28:20;;;;;;;19.10;13.32;;;31.00;73.40;;;;;;1909943;74;21151;-88
2022/03/18 05:30:52;;;;;;;15.85;11.90;;;30.90;73.60;;;;;;1904401;75;21136;-87
2022/03/18 05:33:23;;;;;;;18.12;12.03;;;30.80;74.00;;;;;;1928520;73;21220;-87
2022/03/18 05:35:54;;;;;;;20.90;12.30;;;30.70;74.60;;;;;;1945275;73;21096;-92
2022/03/18 05:38:26;;;;;;;14.30;11.53;;;30.70;74.70;;;;;;1954414;73;21194;-92
2022/03/18 05:40:58;;;;;;;14.95;11.20;;;30.60;74.80;;;;;;1955347;72;21193;-91
2022/03/18 05:43:29;;;;;;;14.35;10.90;;;30.50;75.10;;;;;;1957074;72;21107;-92
2022/03/18 05:46:00;;;;;;;13.48;11.20;;;30.40;75.40;;;;;;1952645;73;21134;-93
2022/03/18 05:48:31;;;;;;;16.75;10.95;;;30.40;76.60;;;;;;1955184;73;21205;-93
2022/03/18 05:51:02;;;;;;;14.63;11.40;;;30.40;76.00;;;;;;1953626;73;21107;-92
2022/03/18 05:53:33;;;;;;;14.98;11.18;;;30.30;76.20;;;;;;1958362;73;21143;-91
2022/03/18 05:58:44;;;;;;;19.30;12.13;;;30.20;76.70;;;;;;1897207;74;21166;-92
2022/03/18 06:01:15;;;;;;;17.73;11.43;;;30.20;77.30;;;;;;1904444;73;21139;-91
2022/03/18 06:03:49;;;;;;;19.23;12.63;;;30.10;77.50;;;;;;1908719;73;21036;-90
2022/03/18 06:06:20;;;;;;;21.48;12.68;;;30.10;78.60;;;;;;1923262;73;21145;-92
2022/03/18 06:13:59;;;;;;;19.60;13.00;;;30.00;80.60;;;;;;1918524;73;21179;-88
2022/03/18 06:16:30;;;;;;;20.37;13.15;;;29.90;81.20;;;;;;1893275;74;21147;-88
2022/03/18 06:19:03;;;;;;;18.67;13.38;;;29.70;81.80;;;;;;1914774;74;21087;-88
2022/03/18 06:21:38;;;;;;;19.23;14.07;;;29.70;83.90;;;;;;1897228;74;21172;-87
2022/03/18 06:24:07;;;;;;;23.12;13.78;;;29.60;84.20;;;;;;1920502;74;21242;-87
2022/03/18 06:26:38;;;;;;;21.62;14.20;;;29.60;84.00;;;;;;1921766;74;21245;-88
2022/03/18 06:29:13;;;;;;;21.25;14.13;;;29.50;85.20;;;;;;1921885;74;21166;-88
2022/03/18 06:31:44;;;;;;;19.60;15.10;;;29.40;85.90;;;;;;1933323;74;21112;-89
2022/03/18 06:34:16;;;;;;;20.32;14.30;;;29.30;86.90;;;;;;1921794;74;21186;-88
2022/03/18 06:36:49;;;;;;;19.70;15.35;;;29.30;87.40;;;;;;1921580;74;21088;-88
2022/03/18 06:39:22;;;;;;;19.82;13.53;;;29.20;87.80;;;;;;1926986;73;21071;-87
2022/03/18 06:41:54;;;;;;;25.77;15.95;;;29.20;87.20;;;;;;1917824;73;21205;-87
2022/03/18 06:44:25;;;;;;;23.83;16.57;;;29.10;88.20;;;;;;1889324;73;21136;-88
2022/03/18 06:46:56;;;;;;;21.20;15.25;;;29.10;87.90;;;;;;1920608;74;21772;-88
2022/03/18 06:49:27;;;;;;;24.30;14.83;;;29.00;87.20;;;;;;1920230;75;21126;-87
2022/03/18 06:51:59;;;;;;;21.27;14.55;;;28.90;86.10;;;;;;1938692;73;21095;-87
2022/03/18 06:54:30;;;;;;;22.22;15.50;;;28.90;88.20;;;;;;1947348;74;21127;-87
2022/03/18 06:57:05;;;;;;;20.15;15.80;;;28.90;89.00;;;;;;1946952;72;21123;-88
2022/03/18 06:59:36;;;;;;;23.20;16.23;;;28.90;90.50;;;;;;1954422;73;21178;-87
2022/03/18 07:02:08;;;;;;;21.60;16.05;;;28.90;90.70;;;;;;1947108;74;21185;-88
2022/03/18 07:04:39;;;;;;;23.52;16.65;;;28.90;90.90;;;;;;1922905;73;21169;-88
2022/03/18 07:07:12;;;;;;;23.60;16.73;;;28.80;91.20;;;;;;1920172;74;21076;-87
2022/03/18 07:10:00;;;;;;;23.27;16.23;;;28.80;90.40;;;;;;1920281;75;21079;-88
2022/03/18 07:12:31;;;;;;;22.10;16.55;;;28.80;90.50;;;;;;1920287;74;21628;-87
2022/03/18 07:15:02;;;;;;;20.80;16.62;;;28.80;90.70;;;;;;1920756;75;21142;-88
2022/03/18 07:20:06;;;;;;;23.73;17.02;;;28.70;90.80;;;;;;1919590;73;21200;-88
2022/03/18 07:22:37;;;;;;;31.68;17.95;;;28.60;90.50;;;;;;1947604;73;21702;-86
2022/03/18 07:25:09;;;;;;;26.33;18.98;;;28.60;91.30;;;;;;1964404;73;21067;-87
2022/03/18 07:27:40;;;;;;;26.90;19.12;;;28.50;91.50;;;;;;1964594;73;21158;-87
2022/03/18 07:30:12;;;;;;;29.27;17.35;;;28.50;91.80;;;;;;1964446;73;21088;-90
2022/03/18 07:32:44;;;;;;;22.75;16.97;;;28.50;92.00;;;;;;1964329;73;21676;-88
2022/03/18 07:35:16;;;;;;;26.62;17.67;;;28.40;92.00;;;;;;1963802;73;21149;-88
2022/03/18 07:37:48;;;;;;;22.40;16.02;;;28.40;92.00;;;;;;1964365;73;21134;-89
2022/03/18 07:40:20;;;;;;;23.20;16.62;;;28.30;92.30;;;;;;1964588;73;21189;-88
2022/03/18 07:42:53;;;;;;;22.32;16.15;;;28.30;92.80;;;;;;1927017;73;21617;-88
2022/03/18 07:45:27;;;;;;;24.10;16.42;;;28.20;92.50;;;;;;1915706;72;21190;-88
2022/03/18 07:48:01;;;;;;;21.45;15.58;;;28.10;92.70;;;;;;1955851;73;21119;-88
2022/03/18 07:50:34;;;;;;;18.90;16.02;;;28.10;92.80;;;;;;1915505;74;21162;-87
2022/03/18 07:53:08;;;;;;;34.13;15.93;;;28.00;92.90;;;;;;1929610;73;21055;-88
2022/03/18 07:55:40;;;;;;;22.07;16.40;;;28.00;93.10;;;;;;1928035;74;21213;-88
2022/03/18 07:58:12;;;;;;;25.75;18.00;;;27.90;93.30;;;;;;1924531;74;21142;-87
2022/03/18 08:00:47;;;;;;;23.60;16.70;;;27.90;93.20;;;;;;1899632;74;21665;-89
2022/03/18 08:03:18;;;;;;;20.45;15.85;;;27.90;93.20;;;;;;1949200;73;21145;-88
2022/03/18 08:05:50;;;;;;;22.10;15.95;;;27.80;93.10;;;;;;1939241;73;21723;-86
2022/03/18 08:08:21;;;;;;;20.43;16.40;;;27.80;93.40;;;;;;1943660;73;21103;-87
2022/03/18 08:10:53;;;;;;;21.87;16.70;;;27.80;93.70;;;;;;1942845;72;21151;-88
2022/03/18 08:13:24;;;;;;;22.15;15.95;;;27.70;93.90;;;;;;1935552;73;21103;-88
2022/03/18 08:15:56;;;;;;;20.60;16.55;;;27.70;93.90;;;;;;1945975;73;21112;-87
2022/03/18 08:18:27;;;;;;;23.07;16.55;;;27.60;94.00;;;;;;1947980;73;21111;-86
2022/03/18 08:20:58;;;;;;;20.37;14.68;;;27.50;94.30;;;;;;1927309;74;21193;-88
2022/03/18 08:23:33;;;;;;;21.40;16.20;;;27.50;93.90;;;;;;1923305;74;21123;-86
2022/03/18 08:26:04;;;;;;;24.87;16.80;;;27.50;94.60;;;;;;1924485;73;21187;-88
2022/03/18 08:28:36;;;;;;;24.90;17.90;;;27.40;94.60;;;;;;1940753;73;21133;-87
2022/03/18 08:31:08;;;;;;;23.42;16.77;;;27.40;95.80;;;;;;1923815;73;21137;-84
2022/03/18 08:33:39;;;;;;;23.70;18.75;;;27.40;95.40;;;;;;1938098;73;21176;-86
2022/03/18 08:36:10;;;;;;;26.02;18.87;;;27.40;95.50;;;;;;1954709;73;21186;-87
2022/03/18 08:38:41;;;;;;;23.92;17.07;;;27.40;95.40;;;;;;1953864;73;21192;-87
2022/03/18 08:41:12;;;;;;;25.65;16.80;;;27.40;95.20;;;;;;1915330;74;21142;-87
2022/03/18 08:43:43;;;;;;;27.58;19.35;;;27.40;95.20;;;;;;1919628;74;21147;-87
2022/03/18 08:46:15;;;;;;;24.82;18.73;;;27.30;95.40;;;;;;1899617;75;21095;-88
2022/03/18 08:48:46;;;;;;;26.17;19.90;;;27.30;95.60;;;;;;1953339;72;21110;-88
2022/03/18 08:51:17;;;;;;;23.42;18.60;;;27.30;95.80;;;;;;1951918;73;21197;-88
2022/03/18 08:53:48;;;;;;;25.20;18.80;;;27.30;95.80;;;;;;1911089;74;21607;-88
2022/03/18 08:56:19;;;;;;;26.25;19.37;;;27.30;96.00;;;;;;1915785;74;21205;-87
2022/03/18 08:58:51;;;;;;;22.27;17.80;;;27.30;96.30;;;;;;1959717;73;21126;-87
2022/03/18 09:01:22;;;;;;;25.52;18.52;;;27.30;96.50;;;;;;1941782;73;21174;-88
2022/03/18 09:03:53;;;;;;;30.60;21.27;;;27.30;96.90;;;;;;1938837;73;21128;-88
2022/03/18 09:06:26;;;;;;;29.32;20.88;;;27.30;96.90;;;;;;1941333;73;21238;-87
2022/03/18 09:09:02;;;;;;;27.80;21.30;;;27.20;96.30;;;;;;1937529;73;21387;-88
2022/03/18 09:11:33;;;;;;;29.87;21.87;;;27.20;96.40;;;;;;1921950;73;21153;-86
2022/03/18 09:14:04;;;;;;;28.40;21.35;;;27.10;96.60;;;;;;1945837;72;21586;-87
2022/03/18 09:16:37;;;;;;;34.13;22.77;;;27.10;96.70;;;;;;1913110;74;21111;-86
2022/03/18 09:19:10;;;;;;;29.90;21.70;;;27.20;97.20;;;;;;1910238;74;21134;-87
2022/03/18 09:21:42;;;;;;;27.32;21.50;;;27.10;97.00;;;;;;1913432;73;21104;-88
2022/03/18 09:24:13;;;;;;;25.82;20.70;;;27.10;97.20;;;;;;1910418;74;21674;-86
2022/03/18 09:26:44;;;;;;;25.15;21.48;;;27.10;97.10;;;;;;1918798;73;21216;-89
2022/03/18 09:29:18;;;;;;;30.50;21.42;;;27.10;97.20;;;;;;1885338;75;21580;-88
2022/03/18 09:31:48;;;;;;;28.40;21.90;;;27.20;97.10;;;;;;1901563;73;21120;-87
2022/03/18 09:34:27;;;;;;;26.70;21.10;;;27.20;97.30;;;;;;1884588;73;21267;-87
2022/03/18 09:36:54;;;;;;;26.15;20.70;;;27.20;97.30;;;;;;1883141;76;21201;-86
2022/03/18 09:39:27;;;;;;;27.80;21.10;;;27.20;97.00;;;;;;1881980;74;21166;-87
2022/03/18 09:42:01;;;;;;;30.35;21.73;;;27.20;97.10;;;;;;1881526;75;21276;-88
2022/03/18 09:44:36;;;;;;;27.13;20.55;;;27.10;97.30;;;;;;1930928;73;21574;-88
2022/03/18 09:47:10;;;;;;;27.17;20.65;;;27.10;97.40;;;;;;1915121;75;21200;-88
2022/03/18 09:49:45;;;;;;;26.60;20.72;;;27.10;97.10;;;;;;1917564;73;21240;-88
2022/03/18 09:52:16;;;;;;;27.80;20.27;;;27.10;97.50;;;;;;1944650;73;21548;-88
2022/03/18 09:54:47;;;;;;;28.57;20.25;;;27.10;97.60;;;;;;1912663;74;21170;-88
2022/03/18 09:57:18;;;;;;;21.20;18.12;;;27.00;97.70;;;;;;1943239;73;21158;-89
2022/03/18 09:59:49;;;;;;;24.98;19.20;;;27.00;97.80;;;;;;1906254;74;21133;-88
2022/03/18 10:02:26;;;;;;;22.80;17.95;;;27.00;98.00;;;;;;1905597;74;22183;-87
2022/03/18 10:05:00;;;;;;;26.30;17.90;;;27.00;98.50;;;;;;1892137;74;21148;-87
2022/03/18 10:07:31;;;;;;;21.00;15.95;;;27.10;98.10;;;;;;1955421;72;21149;-87
2022/03/18 10:10:10;;;;;;;21.93;16.00;;;27.10;97.90;;;;;;1920581;74;21134;-88
2022/03/18 10:12:48;;;;;;;20.68;15.93;;;27.10;98.00;;;;;;1965743;72;21119;-90
2022/03/18 10:15:22;;;;;;;21.57;14.70;;;27.10;97.70;;;;;;1965900;73;21048;-89
2022/03/18 10:17:56;;;;;;;17.90;15.35;;;27.10;97.40;;;;;;1956558;73;21112;-86
2022/03/18 10:20:29;;;;;;;17.15;14.07;;;27.10;97.50;;;;;;1957603;72;21157;-87
2022/03/18 10:23:03;;;;;;;18.30;14.73;;;27.10;97.40;;;;;;1954265;71;21107;-86
2022/03/18 10:25:36;;;;;;;21.35;14.87;;;27.10;97.50;;;;;;1970404;72;21099;-84
2022/03/18 10:28:10;;;;;;;25.05;15.75;;;27.00;97.40;;;;;;1940606;73;21059;-87
2022/03/18 10:30:42;;;;;;;19.60;15.70;;;26.90;97.70;;;;;;1952342;72;21563;-87
2022/03/18 10:33:14;;;;;;;20.55;14.87;;;26.80;97.70;;;;;;1918029;74;21134;-87
2022/03/18 10:38:20;;;;;;;20.62;16.25;;;26.70;98.60;;;;;;1952231;73;21071;-88
2022/03/18 10:40:53;;;;;;;26.15;18.17;;;26.70;99.10;;;;;;1910595;74;21073;-87
2022/03/18 10:43:24;;;;;;;22.32;18.37;;;26.70;99.30;;;;;;1903777;75;21194;-88
2022/03/18 10:45:57;;;;;;;23.52;18.60;;;26.60;99.00;;;;;;1890360;74;21132;-86
2022/03/18 10:48:29;;;;;;;26.12;19.77;;;26.60;99.50;;;;;;1873597;74;21248;-88
2022/03/18 10:51:02;;;;;;;22.70;17.55;;;26.60;99.80;;;;;;1903753;74;21248;-86
2022/03/18 10:53:34;;;;;;;25.62;18.27;;;26.50;99.70;;;;;;1932387;73;21183;-85
2022/03/18 10:56:05;;;;;;;21.23;16.70;;;26.50;99.90;;;;;;1940336;72;21141;-86
2022/03/18 10:58:38;;;;;;;22.27;18.17;;;26.50;99.30;;;;;;1900833;75;21156;-87
2022/03/18 11:01:10;;;;;;;20.55;17.30;;;26.40;99.40;;;;;;1897921;74;21186;-87
2022/03/18 11:03:46;;;;;;;20.90;17.27;;;26.40;99.20;;;;;;1863527;75;21176;-89
2022/03/18 11:06:18;;;;;;;21.97;18.73;;;26.40;99.20;;;;;;1934790;73;21127;-89
2022/03/18 11:08:50;;;;;;;20.37;15.28;;;26.40;99.80;;;;;;1892454;74;21174;-89
2022/03/18 11:11:24;;;;;;;17.85;13.85;;;26.40;99.90;;;;;;1951218;72;21052;-87
2022/03/18 11:14:03;;;;;;;14.45;12.30;;;26.30;98.80;;;;;;1920456;73;21230;-89
2022/03/18 11:16:34;;;;;;;15.68;12.37;;;26.30;98.30;;;;;;1942171;72;21099;-88
2022/03/18 11:19:08;;;;;;;18.87;13.50;;;26.20;98.10;;;;;;1957151;72;21126;-88
2022/03/18 11:21:39;;;;;;;13.95;12.30;;;26.20;98.40;;;;;;1933968;72;21135;-89
2022/03/18 11:24:12;;;;;;;16.62;13.83;;;26.20;98.40;;;;;;1900688;74;21590;-88
2022/03/18 11:26:46;;;;;;;15.98;13.75;;;26.20;98.80;;;;;;1887432;75;21136;-88
2022/03/18 11:29:20;;;;;;;14.95;11.80;;;26.10;99.00;;;;;;1914801;74;21142;-89
2022/03/18 11:31:53;;;;;;;14.98;10.60;;;26.10;98.10;;;;;;1982588;72;21575;-87
2022/03/18 11:34:25;;;;;;;14.05;10.53;;;26.00;98.40;;;;;;1981406;72;21073;-88
2022/03/18 11:36:59;;;;;;;12.18;10.48;;;25.90;97.60;;;;;;1977165;71;21088;-87
2022/03/18 11:39:30;;;;;;;12.82;10.10;;;25.90;97.60;;;;;;1941051;72;21435;-88
2022/03/18 11:42:04;;;;;;;12.15;10.80;;;25.90;97.60;;;;;;1920431;74;21154;-86
2022/03/18 11:44:38;;;;;;;16.55;11.73;;;25.80;97.80;;;;;;1915536;74;21097;-87
2022/03/18 11:47:12;;;;;;;14.15;11.50;;;25.80;98.00;;;;;;1873386;75;21151;-87
2022/03/18 11:49:43;;;;;;;16.67;12.47;;;25.70;98.40;;;;;;1897247;74;21222;-87
2022/03/18 11:52:14;;;;;;;16.85;12.70;;;25.70;98.40;;;;;;1949064;73;21508;-89
2022/03/18 11:54:47;;;;;;;23.07;14.40;;;25.70;98.70;;;;;;1947643;72;21085;-88
2022/03/18 11:57:20;;;;;;;17.98;15.28;;;25.70;98.70;;;;;;1892775;74;21201;-88
2022/03/18 11:59:53;;;;;;;23.05;17.50;;;25.70;99.30;;;;;;1922674;73;21201;-87
2022/03/18 12:02:26;;;;;;;23.30;19.48;;;25.70;99.90;;;;;;1919864;75;21159;-88
2022/03/18 12:04:58;;;;;;;27.37;21.27;;;25.70;99.60;;;;;;1935516;72;21119;-89
2022/03/18 12:07:32;;;;;;;27.77;23.62;;;25.70;99.90;;;;;;1913660;74;21213;-88
2022/03/18 12:10:06;;;;;;;31.05;24.80;;;25.70;99.90;;;;;;1904881;75;21116;-89
2022/03/18 12:12:41;;;;;;;31.82;25.37;;;25.80;99.90;;;;;;1907242;75;21217;-88
2022/03/18 12:15:18;;;;;;;30.85;26.87;;;25.80;99.90;;;;;;1886233;74;21241;-88
2022/03/18 12:17:49;;;;;;;31.45;25.68;;;25.80;99.90;;;;;;1950667;73;21497;-88
2022/03/18 12:20:23;;;;;;;32.93;28.05;;;25.80;99.90;;;;;;1961090;72;21536;-88
2022/03/18 12:23:00;;;;;;;32.98;28.10;;;25.80;99.90;;;;;;1924650;73;21136;-88
2022/03/18 12:25:30;;;;;;;34.73;29.48;;;25.80;99.90;;;;;;1922189;73;21202;-89
2022/03/18 12:28:02;;;;;;;32.42;28.57;;;25.80;99.90;;;;;;1928803;73;21218;-89
2022/03/18 12:30:34;;;;;;;36.13;29.85;;;25.80;99.90;;;;;;1920058;75;21123;-88
2022/03/18 12:33:08;;;;;;;36.38;30.43;;;25.80;99.90;;;;;;1933338;72;21135;-88
2022/03/18 12:35:43;;;;;;;33.28;29.32;;;25.80;99.90;;;;;;1921889;72;21186;-88
2022/03/18 12:38:16;;;;;;;36.68;31.00;;;25.80;99.90;;;;;;1962435;72;21165;-88
2022/03/18 12:40:50;;;;;;;37.58;31.15;;;25.80;99.90;;;;;;1950892;72;21075;-87
2022/03/18 12:43:22;;;;;;;36.38;31.50;;;25.90;99.90;;;;;;1948191;72;21127;-87
2022/03/18 12:45:55;;;;;;;41.20;32.35;;;25.90;99.90;;;;;;1955656;72;21068;-86
2022/03/18 12:48:27;;;;;;;40.23;33.28;;;25.90;99.90;;;;;;1945624;72;21201;-86
2022/03/18 12:50:59;;;;;;;44.55;36.42;;;25.90;99.90;;;;;;1963272;72;21142;-87
2022/03/18 12:53:35;;;;;;;43.33;35.92;;;25.90;99.90;;;;;;1904121;74;21195;-87
2022/03/18 12:56:05;;;;;;;40.58;34.18;;;26.00;99.90;;;;;;1910235;74;21673;-87
2022/03/18 12:58:38;;;;;;;42.33;35.40;;;25.90;99.90;;;;;;1907938;74;21100;-86
2022/03/18 13:01:12;;;;;;;40.15;34.27;;;26.00;99.90;;;;;;1911463;74;21131;-87
2022/03/18 13:03:47;;;;;;;43.30;33.92;;;26.00;99.90;;;;;;1913354;74;21102;-87
2022/03/18 13:06:20;;;;;;;36.93;32.93;;;26.00;99.90;;;;;;1943632;72;21089;-87
2022/03/18 13:08:56;;;;;;;35.20;29.12;;;26.00;99.90;;;;;;1904916;74;21170;-86
2022/03/18 13:11:27;;;;;;;36.75;31.27;;;26.00;99.90;;;;;;1875040;75;21546;-86
2022/03/18 13:13:58;;;;;;;34.33;28.25;;;26.00;99.90;;;;;;1903416;73;21214;-85